If you wish to contribute or participate in the discussions about articles you are invited to join SKYbrary as a registered user

 Actions

Zafer Airport

From SKYbrary Wiki

LTBZ
Airport
ICAO: LTBZ – IATA: KZR
Summary
Name Zafer Airport
Region Europe
Territory Turkey TR.gif
Location Kütahya
Serving Altıntaş
Coordinates 39° 6' 41.00" N, 30° 7' 48.00" E
Runways
Designator Length Width Surface ROPS


METAR
Observation LTBZ 252250Z 10003KT 040V140 9999 FEW040 07/04 Q1023
Station Kütahya Zafer Airport
Date/Time 25 April 2019 22:50:00
Wind direction 100°
Wind speed 03 kts
Lowest cloud amount few clouds
Temperature 7°C
Dew point 4°C
Humidity 81%
QNH 1023 hPa
Weather condition n/a